HOURLY OBS INDEX

005

Pilbara - Fortescue

BARROW ISLAND AIRPORT

Site: 005094
Alt: 6.4m
90km NNE of ONSLOW


  Time     Wind        Temp  DP   Baro     Rain since   Rain past  Vis(m), Cloud(base in m), Weather
  local        km/h                         9am  last   hr   10m    
Mon 06:00  ENE 28/ 33  21.7 11.4  1016.5    0.0   0.0   0.0   0.0   ----- 
Mon 06:30  ENE 33/ 43  21.8  8.3  1016.9    0.0   0.0   0.0   0.0   ----- 
Mon 07:00  ENE 35/ 39  21.6  9.8  1017.0    0.0   0.0   0.0   0.0   ----- 
Mon 07:30  ENE 39/ 45  21.9  9.1  1017.3    0.0   0.0   0.0   0.0   ----- 
Mon 08:00  ENE 39/ 45  21.7  9.6  1017.5    0.0   0.0   0.0   0.0   ----- 
Mon 08:30  ENE 39/ 45  21.8 10.0  1017.6    0.0   0.0   0.0   0.0   ----- 
Mon 09:00  ENE 39/ 46  21.9 10.1  1017.9    0.0   0.0   0.0   0.0   ----- 
Mon 09:30  ENE 37/ 45  22.1 11.2  1018.2    0.0   0.0   0.0   0.0   ----- 
Mon 10:00  ENE 37/ 45  22.1 10.9  1018.3    0.0   0.0   0.0   0.0   ----- 
Mon 10:30  ENE 35/ 41  22.3 11.1  1018.1    0.0   0.0   0.0   0.0   ----- 
Mon 11:00  ENE 35/ 41  22.4 10.9  1017.8    0.0   0.0   0.0   0.0   ----- 

BOOLGEEDA AIRPORT

Site: 005BGD
Alt: 585m
207km SSE of KARRATHA


  Time     Wind        Temp  DP   Baro     Rain since   Rain past  Vis(m), Cloud(base in m), Weather
  local        km/h                         9am  last   hr   10m    
Mon 06:00   NE 13/ 19  13.5 -8.4  1019.3    0.0   0.0   0.0   0.0   10000 
Mon 06:30  NNW  4/  6  12.0 -8.5  1019.6    0.0   0.0   0.0   0.0   10000 
Mon 07:00   NE  4/  6  10.7 -8.0  1019.7    0.0   0.0   0.0   0.0   10000 
Mon 07:30  NNE  6/  7  12.7 -7.9  1019.9    0.0   0.0   0.0   0.0   10000 
Mon 08:00  WNW  2/  6  14.2 -7.8  1020.2    0.0   0.0   0.0   0.0   10000 
Mon 08:30  WNW  4/  6  15.7 -7.2  1020.6    0.0   0.0   0.0   0.0   10000 
Mon 09:00   NW  4/  6  17.6 -7.0  1020.9    0.0   0.0   0.0   0.0   10000 
Mon 09:30  NNW  2/  6  19.6 -7.7  1020.9    0.0   0.0   0.0   0.0   10000 
Mon 10:00  WSW  2/  6  20.9 -7.6  1020.8    0.0   0.0   0.0   0.0   10000 
Mon 10:30  NNW  4/  7  22.2 -7.5  1020.6    0.0   0.0   0.0   0.0   10000 
Mon 11:00    W  4/ 17  22.9 -8.0  1020.3    0.0   0.0   0.0   0.0   10000 

CHRISTMAS CREEK MINE AP

Site: 005CHK
Alt: m
111km N of NEWMAN


  Time     Wind        Temp  DP   Baro     Rain since   Rain past  Vis(m), Cloud(base in m), Weather
  local        km/h                         9am  last   hr   10m    
Mon 06:00    S  6/  7   4.9 -8.5  1021.2    0.0   0.0   0.0   0.0   10000 
Mon 06:30    S  6/  6   4.6 -9.0  1021.3    0.0   0.0   0.0   0.0   10000 
Mon 07:00   SW  2/  2   5.7 -9.0  1021.5    0.0   0.0   0.0   0.0   10000 
Mon 07:30  SSW  2/  4   6.7 -9.0  1021.6    0.0   0.0   0.0   0.0   10000 
Mon 08:00    S  4/  6   8.5 -8.4  1021.8    0.0   0.0   0.0   0.0   10000 
Mon 08:30    S  6/  7  10.2 -8.4  1022.0    0.0   0.0   0.0   0.0   10000 
Mon 09:00    S  4/  7  12.4 -9.3  1022.4    0.0   0.0   0.0   0.0   10000 
Mon 09:30  SSE  7/ 11  15.2 -8.9  1022.3    0.0   0.0   0.0   0.0   10000 
Mon 10:00    E  9/ 15  18.3-10.4  1022.1    0.0   0.0   0.0   0.0   10000 
Mon 10:30    E 11/ 20  19.3-10.5  1021.7    0.0   0.0   0.0   0.0   10000 
Mon 11:00  ENE 11/ 20  20.7-12.0  1021.1    0.0   0.0   0.0   0.0   10000 

FORTESCUE DAVE FORREST AP

Site: 005FDF
Alt: 450m
124km NNW of NEWMAN


  Time     Wind        Temp  DP   Baro     Rain since   Rain past  Vis(m), Cloud(base in m), Weather
  local        km/h                         9am  last   hr   10m    
Mon 06:00   SE  9/ 13   8.6 -6.0  1020.8    0.0   0.0   0.0   0.0   10000 
Mon 06:30   SE  9/ 13   7.7 -6.4  1021.0    0.0   0.0   0.0   0.0   10000 
Mon 07:00  ESE  6/  9   7.7 -6.4  1021.1    0.0   0.0   0.0   0.0   10000 
Mon 07:30    E  4/  7   9.2 -6.2  1021.3    0.0   0.0   0.0   0.0   10000 
Mon 08:00  ESE  9/ 13  10.4 -6.0  1021.3    0.0   0.0   0.0   0.0   10000 
Mon 08:30  ESE  9/ 11  12.0 -5.9  1021.6    0.0   0.0   0.0   0.0   10000 
Mon 09:00  ESE 11/ 13  13.3 -5.8  1021.9    0.0   0.0   0.0   0.0   10000 
Mon 09:30  ESE  9/ 13  15.4 -5.6  1022.0    0.0   0.0   0.0   0.0   10000 
Mon 10:00  ESE 11/ 15  16.7 -5.7  1021.7    0.0   0.0   0.0   0.0   10000 
Mon 10:30    E 11/ 20  19.8 -5.9  1021.4    0.0   0.0   0.0   0.0   10000 
Mon 11:00  ENE 13/ 19  20.7 -6.0  1020.9    0.0   0.0   0.0   0.0   10000 

KARIJINI NORTH

Site: 005098
Alt: 474.0m
km of


  Time     Wind        Temp  DP   Baro     Rain since   Rain past  Vis(m), Cloud(base in m), Weather
  local        km/h                         9am  last   hr   10m    
Mon 08:00   NW  4/  7  15.5 -7.3  1021.4   ----  ----  ----   0.0   ----- 
Mon 08:30  NNE  7/  9  16.0 -6.9  1021.8   ----  ----  ----   0.0   ----- 
Mon 09:00  ENE  9/ 15  17.0 -6.8  1021.8   ----  ----  ----   0.0   ----- 
Mon 09:30    E 20/ 32  18.6 -7.7  1022.0    0.0  ----  ----   0.0   ----- 
Mon 10:00    E 19/ 22  19.5 -7.8  1021.9    0.0   0.0  ----   0.0   ----- 
Mon 10:30    E 15/ 22  20.5 -7.9  1021.5    0.0   0.0   0.0   0.0   ----- 
Mon 11:00  ENE 13/ 20  20.9 -8.5  1021.1    0.0   0.0   0.0   0.0   ----- 

LEARMONTH AIRPORT

Site: 005007
Alt: 5.0m
34km S of EXMOUTH


  Time     Wind        Temp  DP   Baro     Rain since   Rain past  Vis(m), Cloud(base in m), Weather
  local        km/h                         9am  last   hr   10m    
Mon 06:00   SW 11/ 15   9.2  3.0  1017.1    0.0   0.0   0.0   0.0   10000 
Mon 06:30   SW  9/ 11   9.0  3.4  1017.4    0.0   0.0   0.0   0.0   10000 
Mon 07:00  WNW  7/  9  10.7  4.6  1017.4    0.0   0.0   0.0   0.0   10000 
Mon 07:30    C  0/  0  11.2  5.1  1017.6    0.0   0.0   0.0   0.0   10000 
Mon 08:00    C  0/  0  14.0  8.0  1017.8    0.0   0.0   0.0   0.0   10000 
Mon 08:30    C  0/  0  17.8 10.2  1018.1    0.0   0.0   0.0   0.0   10000 
Mon 09:00    C  0/  0  19.8 11.0  1018.6    0.0   0.0   0.0   0.0   10000 
Mon 09:30    E  6/  9  20.6 13.3  1018.7    0.0   0.0   0.0   0.0   10000 
Mon 10:00  ENE  7/ 13  21.4 14.1  1018.6    0.0   0.0   0.0   0.0   10000 
Mon 10:30  ENE  9/ 17  21.8 13.4  1018.7    0.0   0.0   0.0   0.0   10000 
Mon 11:00  ENE 13/ 19  22.6 12.3  1018.5    0.0   0.0   0.0   0.0   10000 

MARDIE

Site: 005008
Alt: 11.0m
103km ENE of ONSLOW


  Time     Wind        Temp  DP   Baro     Rain since   Rain past  Vis(m), Cloud(base in m), Weather
  local        km/h                         9am  last   hr   10m    
Mon 06:00    E 11/ 13  14.4 -6.4  1016.6    0.0   0.0   0.0   0.0   ----- 
Mon 06:30    E 13/ 13  14.6 -6.8  1017.1    0.0   0.0   0.0   0.0   ----- 
Mon 07:00    E 13/ 17  14.5 -6.9  1017.4    0.0   0.0   0.0   0.0   ----- 
Mon 07:30    E 15/ 17  15.8 -6.5  1017.6    0.0   0.0   0.0   0.0   ----- 
Mon 08:00    E 17/ 22  17.9 -7.5  1017.9    0.0   0.0   0.0   0.0   ----- 
Mon 08:30    E 19/ 22  19.4 -7.9  1018.0    0.0   0.0   0.0   0.0   ----- 
Mon 09:00    E 19/ 24  21.4 -8.1  1018.1    0.0   0.0   0.0   0.0   ----- 
Mon 09:30    E 20/ 30  24.0 -9.5  1018.3    0.0   0.0   0.0   0.0   ----- 
Mon 10:00  ENE 28/ 35  25.4 -9.7  1018.3    0.0   0.0   0.0   0.0   ----- 
Mon 10:30  ENE 28/ 35  26.0 -9.3  1017.9    0.0   0.0   0.0   0.0   ----- 
Mon 11:00   NE 24/ 33  27.7 -9.5  1017.7    0.0   0.0   0.0   0.0   ----- 

ONSLOW AIRPORT

Site: 005017
Alt: 10.5m
3km S of ONSLOW


  Time     Wind        Temp  DP   Baro     Rain since   Rain past  Vis(m), Cloud(base in m), Weather
  local        km/h                         9am  last   hr   10m    
Mon 06:00  ESE 11/ 13  13.4  9.3  1017.6    0.0   0.0   0.0   0.0   10000 
Mon 06:30  ESE  7/  9  13.5  9.4  1017.8    0.0   0.0   0.0   0.0   10000 
Mon 07:00  ESE  7/  9  13.7  9.4  1018.1    0.0   0.0   0.0   0.0   10000 
Mon 07:30    E  9/ 11  14.0  9.4  1018.2    0.0   0.0   0.0   0.0   10000 
Mon 08:00    E 11/ 13  16.7  9.1  1018.2    0.0   0.0   0.0   0.0   10000 
Mon 08:30  ENE 19/ 24  18.8  3.0  1018.6    0.0   0.0   0.0   0.0   10000 
Mon 09:00  ENE 22/ 28  19.7  0.7  1019.0    0.0   0.0   0.0   0.0   10000 
Mon 09:30  ENE 28/ 39  20.9 -0.4  1019.1    0.0   0.0   0.0   0.0   10000 
Mon 10:00   NE 30/ 39  22.2 -1.1  1018.9    0.0   0.0   0.0   0.0   10000 
Mon 10:30   NE 24/ 30  23.2  0.3  1018.7    0.0   0.0   0.0   0.0   10000 
Mon 11:00  NNE 24/ 30  23.8  2.6  1018.6    0.0   0.0   0.0   0.0   10000 

SOLOMON AERODROME

Site: 005SOL
Alt: 625m
235km WSW of MARBLE BAR


  Time     Wind        Temp  DP   Baro     Rain since   Rain past  Vis(m), Cloud(base in m), Weather
  local        km/h                         9am  last   hr   10m    
Mon 06:00   NE 11/ 17  14.4 -7.0  1020.0    0.0   0.0   0.0   0.0   10000 
Mon 06:30  ENE 13/ 19  14.4 -7.6  1020.1    0.0   0.0   0.0   0.0   10000 
Mon 07:00  ESE  6/ 13  12.2 -7.2  1020.5    0.0   0.0   0.0   0.0   10000 
Mon 07:30    E  9/ 15  14.3 -7.1  1020.6    0.0   0.0   0.0   0.0   10000 
Mon 08:00  ENE 19/ 24  15.8 -7.1  1021.1    0.0   0.0   0.0   0.0   10000 
Mon 08:30  ENE 24/ 32  16.5 -7.9  1021.3    0.0   0.0   0.0   0.0   10000 
Mon 09:00  ENE 24/ 32  17.0 -7.5  1021.5    0.0   0.0   0.0   0.0   10000 
Mon 09:30  ENE 20/ 30  18.1 -7.3  1021.6    0.0   0.0   0.0   0.0   10000 
Mon 10:00   NE 22/ 32  19.1 -7.3  1021.5    0.0   0.0   0.0   0.0   10000 
Mon 10:30   NE 20/ 28  19.6 -6.9  1021.2    0.0   0.0   0.0   0.0   10000 
Mon 11:00   NE 19/ 28  20.3 -7.1  1021.0    0.0   0.0   0.0   0.0   10000